Time;durP1;ratioP1;P1;durP2;ratioP2;P2;SDS_P1;SDS_P2;PMS_P1;PMS_P2;Temp;Humidity;BMP_temperature;BMP_pressure;BME280_temperature;BME280_humidity;BME280_pressure;Samples;Min_cycle;Max_cycle;Signal;HPM_P1;HPM_P2
2023/12/17 00:03:29;;;;;;;36.57;12.90;;;;;0.80;98472.00;;;;8279580;28;20227;-74
2023/12/17 00:07:34;;;;;;;31.90;12.77;;;;;0.80;98464.00;;;;8281430;28;20197;-74
2023/12/17 00:11:41;;;;;;;33.20;13.73;;;;;0.90;98460.00;;;;8285542;28;20857;-73
2023/12/17 00:15:44;;;;;;;25.70;10.80;;;;;0.90;98468.00;;;;8290034;28;20261;-74
2023/12/17 00:19:47;;;;;;;31.50;12.03;;;;;0.90;98471.00;;;;8283949;28;20321;-74
2023/12/17 00:23:52;;;;;;;32.33;12.90;;;;;0.90;98461.00;;;;8285393;28;20288;-75
2023/12/17 00:27:55;;;;;;;33.37;11.33;;;;;0.90;98458.00;;;;8284318;28;20227;-75
2023/12/17 00:31:58;;;;;;;31.43;12.20;;;;;1.00;98451.00;;;;8285365;28;20221;-74
2023/12/17 00:36:03;;;;;;;26.00;11.03;;;;;1.00;98452.00;;;;8287278;28;20228;-74
2023/12/17 00:40:09;;;;;;;28.27;10.20;;;;;1.00;98451.00;;;;8285440;28;20224;-75
2023/12/17 00:44:12;;;;;;;26.53;10.87;;;;;1.00;98459.00;;;;8285831;28;20293;-75
2023/12/17 00:48:15;;;;;;;23.27;10.23;;;;;0.90;98458.00;;;;8289094;28;20212;-75
2023/12/17 00:52:19;;;;;;;23.97;10.13;;;;;0.80;98464.00;;;;8284862;28;20204;-75
2023/12/17 00:56:24;;;;;;;28.33;10.50;;;;;0.80;98477.00;;;;8285558;28;20202;-76
2023/12/17 01:00:27;;;;;;;23.37;10.83;;;;;0.70;98477.00;;;;8283098;28;20232;-75
2023/12/17 01:04:30;;;;;;;21.57;9.63;;;;;0.60;98487.00;;;;8285061;28;20265;-74
2023/12/17 01:08:33;;;;;;;24.77;9.70;;;;;0.50;98489.00;;;;8284466;28;20297;-75
2023/12/17 01:12:38;;;;;;;29.67;11.30;;;;;0.50;98488.00;;;;8284673;28;20214;-75
2023/12/17 01:16:41;;;;;;;25.20;10.50;;;;;0.50;98483.00;;;;8282307;28;20990;-76
2023/12/17 01:20:46;;;;;;;25.53;11.17;;;;;0.50;98477.00;;;;8281464;28;20239;-76
2023/12/17 01:24:54;;;;;;;24.87;10.07;;;;;0.60;98475.00;;;;8288836;28;20210;-76
2023/12/17 01:28:59;;;;;;;26.70;11.10;;;;;0.50;98478.00;;;;8286639;28;20214;-76
2023/12/17 01:33:02;;;;;;;24.73;9.93;;;;;0.50;98480.00;;;;8285636;28;20770;-77
2023/12/17 01:37:05;;;;;;;27.23;11.50;;;;;0.50;98481.00;;;;8279634;28;20204;-77
2023/12/17 01:41:08;;;;;;;22.67;10.43;;;;;0.50;98477.00;;;;8284768;28;20567;-77
2023/12/17 01:45:13;;;;;;;24.57;10.30;;;;;0.50;98480.00;;;;8296783;28;20239;-77
2023/12/17 01:49:16;;;;;;;28.93;11.17;;;;;0.50;98477.00;;;;8279906;28;20201;-77
2023/12/17 01:53:20;;;;;;;22.17;10.70;;;;;0.50;98471.00;;;;8285876;28;20243;-78
2023/12/17 01:57:23;;;;;;;22.27;10.33;;;;;0.50;98477.00;;;;8291505;28;20274;-78
2023/12/17 02:01:28;;;;;;;25.03;10.63;;;;;0.50;98467.00;;;;8289608;28;20319;-78
2023/12/17 02:05:32;;;;;;;22.87;10.17;;;;;0.50;98467.00;;;;8284633;28;20591;-78
2023/12/17 02:09:36;;;;;;;28.80;10.70;;;;;0.50;98471.00;;;;8294895;28;20232;-79
2023/12/17 02:13:39;;;;;;;28.07;11.63;;;;;0.50;98469.00;;;;8300977;28;20797;-77
2023/12/17 02:17:43;;;;;;;27.40;10.57;;;;;0.50;98464.00;;;;8288856;28;20592;-77
2023/12/17 02:21:47;;;;;;;28.00;11.40;;;;;0.50;98461.00;;;;8280295;28;20206;-77
2023/12/17 02:25:52;;;;;;;28.97;11.90;;;;;0.60;98462.00;;;;8297484;28;20628;-77
2023/12/17 02:29:55;;;;;;;23.87;10.50;;;;;0.50;98455.00;;;;8286042;28;20213;-78
2023/12/17 02:33:59;;;;;;;22.00;10.53;;;;;0.50;98464.00;;;;8279920;28;20201;-77
2023/12/17 02:38:02;;;;;;;21.57;9.97;;;;;0.40;98458.00;;;;8283359;28;20219;-78
2023/12/17 02:42:07;;;;;;;24.93;11.03;;;;;0.40;98462.00;;;;8284374;28;20276;-78
2023/12/17 02:46:10;;;;;;;24.43;9.90;;;;;0.40;98465.00;;;;8281686;28;20190;-77
2023/12/17 02:50:14;;;;;;;24.47;11.23;;;;;0.40;98459.00;;;;8284374;28;20638;-77
2023/12/17 02:54:17;;;;;;;31.10;11.83;;;;;0.40;98451.00;;;;8285419;28;20211;-78
2023/12/17 02:58:21;;;;;;;23.53;10.73;;;;;0.50;98456.00;;;;8281655;28;20616;-77
2023/12/17 03:02:25;;;;;;;22.17;10.97;;;;;0.50;98454.00;;;;8316194;23;20302;-77
2023/12/17 03:06:28;;;;;;;22.97;9.97;;;;;0.50;98447.00;;;;8298151;28;20739;-77
2023/12/17 03:10:32;;;;;;;25.00;10.63;;;;;0.40;98447.00;;;;8299404;28;20305;-77
2023/12/17 03:14:36;;;;;;;24.57;10.17;;;;;0.40;98437.00;;;;8305714;28;20260;-77
2023/12/17 03:18:39;;;;;;;24.37;10.43;;;;;0.40;98435.00;;;;8297447;28;20226;-76
2023/12/17 03:22:42;;;;;;;82.80;13.70;;;;;0.50;98417.00;;;;8295547;28;20264;-76
2023/12/17 03:26:46;;;;;;;27.97;10.30;;;;;0.50;98413.00;;;;8296763;28;20796;-76
2023/12/17 03:30:50;;;;;;;56.07;11.70;;;;;0.50;98408.00;;;;8297448;28;20197;-76
2023/12/17 03:34:54;;;;;;;92.30;12.40;;;;;0.50;98415.00;;;;8299783;28;20422;-75
2023/12/17 03:38:57;;;;;;;177.60;16.80;;;;;0.50;98405.00;;;;8307662;28;20238;-76
2023/12/17 03:43:01;;;;;;;68.13;12.03;;;;;0.60;98398.00;;;;8307621;28;20208;-75
2023/12/17 03:47:06;;;;;;;121.37;15.57;;;;;0.60;98393.00;;;;8304398;28;20198;-75
2023/12/17 03:51:09;;;;;;;121.97;14.00;;;;;0.60;98386.00;;;;8298398;28;21042;-76
2023/12/17 03:55:12;;;;;;;160.77;15.83;;;;;0.60;98381.00;;;;8296988;28;20202;-75
2023/12/17 03:59:16;;;;;;;162.43;15.33;;;;;0.60;98388.00;;;;8296116;28;20239;-75
2023/12/17 04:03:21;;;;;;;88.67;11.90;;;;;0.50;98396.00;;;;8307389;28;20234;-75
2023/12/17 04:07:26;;;;;;;138.20;13.87;;;;;0.60;98389.00;;;;8291028;28;20230;-75
2023/12/17 04:11:29;;;;;;;141.03;14.10;;;;;0.50;98406.00;;;;8274698;28;20697;-75
2023/12/17 04:15:32;;;;;;;96.20;12.70;;;;;0.40;98399.00;;;;8280357;28;20226;-75
2023/12/17 04:19:37;;;;;;;97.43;12.43;;;;;0.30;98397.00;;;;8282170;28;20244;-75
2023/12/17 04:23:40;;;;;;;30.03;10.23;;;;;0.20;98395.00;;;;8267825;28;20217;-75
2023/12/17 04:27:43;;;;;;;22.93;9.73;;;;;0.20;98395.00;;;;8274537;28;20290;-74
2023/12/17 04:31:46;;;;;;;19.97;9.77;;;;;0.20;98395.00;;;;8274309;28;20233;-74
2023/12/17 04:35:51;;;;;;;26.07;10.10;;;;;0.20;98400.00;;;;8273993;28;20229;-75
2023/12/17 04:39:54;;;;;;;20.77;8.53;;;;;0.10;98406.00;;;;8275813;28;20288;-75
2023/12/17 04:43:57;;;;;;;20.70;9.73;;;;;0.10;98408.00;;;;8274641;28;20231;-75
2023/12/17 04:48:00;;;;;;;21.33;9.63;;;;;0.10;98411.00;;;;8286188;28;20292;-75
2023/12/17 04:52:06;;;;;;;16.90;8.73;;;;;0.10;98418.00;;;;8283654;28;20196;-75
2023/12/17 04:56:10;;;;;;;19.93;9.93;;;;;0.00;98431.00;;;;8275880;28;20216;-75
2023/12/17 05:00:14;;;;;;;22.57;9.47;;;;;-0.10;98437.00;;;;8276706;28;20222;-74
2023/12/17 05:04:17;;;;;;;37.43;10.17;;;;;0.00;98436.00;;;;8283656;28;20298;-73
2023/12/17 05:08:22;;;;;;;25.90;10.10;;;;;0.10;98420.00;;;;8280093;28;20214;-74
2023/12/17 05:12:25;;;;;;;37.17;11.03;;;;;0.20;98422.00;;;;8275816;28;20878;-74
2023/12/17 05:16:28;;;;;;;115.17;14.30;;;;;0.30;98422.00;;;;8283357;28;20281;-73
2023/12/17 05:20:31;;;;;;;87.53;13.27;;;;;0.40;98421.00;;;;8278545;28;20867;-76
2023/12/17 05:24:36;;;;;;;78.37;13.37;;;;;0.40;98419.00;;;;8284081;28;20283;-75
2023/12/17 05:28:41;;;;;;;115.57;13.60;;;;;0.60;98424.00;;;;8278387;28;20733;-72
2023/12/17 05:32:44;;;;;;;182.20;17.30;;;;;0.70;98427.00;;;;8278345;28;20209;-73
2023/12/17 05:36:47;;;;;;;164.87;15.47;;;;;0.70;98424.00;;;;8283527;28;20292;-72
2023/12/17 05:40:51;;;;;;;93.13;12.70;;;;;0.80;98425.00;;;;8276933;28;20285;-73
2023/12/17 05:44:54;;;;;;;88.43;12.43;;;;;0.80;98426.00;;;;8288003;28;20207;-73
2023/12/17 05:48:58;;;;;;;85.03;12.80;;;;;0.90;98427.00;;;;8278882;28;20295;-73
2023/12/17 05:53:01;;;;;;;109.17;13.27;;;;;0.90;98409.00;;;;8283779;28;20205;-72
2023/12/17 05:57:06;;;;;;;72.60;12.40;;;;;1.00;98417.00;;;;8278686;28;20214;-74
2023/12/17 06:01:09;;;;;;;72.43;12.60;;;;;1.00;98420.00;;;;8285322;28;20234;-73
2023/12/17 06:05:14;;;;;;;142.07;14.43;;;;;1.10;98423.00;;;;8261696;28;20197;-74
2023/12/17 06:09:18;;;;;;;69.47;11.47;;;;;1.10;98415.00;;;;8283337;28;20760;-72
2023/12/17 06:13:23;;;;;;;83.03;12.53;;;;;1.10;98396.00;;;;8271985;28;20212;-73
2023/12/17 06:17:26;;;;;;;102.40;13.23;;;;;1.00;98395.00;;;;8274572;28;20632;-78
2023/12/17 06:21:29;;;;;;;105.33;13.67;;;;;1.10;98407.00;;;;8269149;28;20969;-74
2023/12/17 06:25:32;;;;;;;101.20;12.43;;;;;1.10;98411.00;;;;8270683;28;20281;-77
2023/12/17 06:29:36;;;;;;;183.13;17.07;;;;;1.20;98411.00;;;;8274617;28;20480;-75
2023/12/17 06:33:39;;;;;;;87.00;13.67;;;;;1.20;98419.00;;;;8283653;28;20566;-75
2023/12/17 06:37:43;;;;;;;51.07;11.87;;;;;1.20;98406.00;;;;8281729;28;20200;-74
2023/12/17 06:41:47;;;;;;;86.43;13.13;;;;;1.30;98409.00;;;;8282102;28;20318;-74
2023/12/17 06:45:52;;;;;;;107.67;13.83;;;;;1.30;98413.00;;;;8284697;28;20205;-74
2023/12/17 06:49:55;;;;;;;103.93;15.23;;;;;1.30;98419.00;;;;8276586;28;20230;-73
2023/12/17 06:53:58;;;;;;;387.67;28.23;;;;;1.30;98398.00;;;;8280676;28;20234;-73
2023/12/17 06:58:01;;;;;;;72.13;13.50;;;;;1.40;98406.00;;;;8283534;28;20944;-72
2023/12/17 07:02:06;;;;;;;109.73;13.83;;;;;1.40;98400.00;;;;8269913;28;20232;-76
2023/12/17 07:06:11;;;;;;;132.63;16.73;;;;;1.40;98402.00;;;;8266703;28;20403;-73
2023/12/17 07:10:14;;;;;;;204.07;18.33;;;;;1.50;98420.00;;;;8275457;28;20251;-76
2023/12/17 07:14:18;;;;;;;125.23;15.27;;;;;1.50;98424.00;;;;8285285;28;20215;-72
2023/12/17 07:18:22;;;;;;;274.37;32.83;;;;;1.60;98421.00;;;;8286961;28;20272;-75
2023/12/17 07:22:25;;;;;;;235.77;23.20;;;;;1.60;98426.00;;;;8274342;28;20225;-73
2023/12/17 07:26:28;;;;;;;227.30;19.80;;;;;1.60;98433.00;;;;8278846;28;20248;-76
2023/12/17 07:30:32;;;;;;;131.87;16.00;;;;;1.60;98438.00;;;;8268396;28;20236;-72
2023/12/17 07:34:37;;;;;;;132.17;15.03;;;;;1.70;98438.00;;;;8282265;28;20206;-74
2023/12/17 07:38:40;;;;;;;169.77;19.70;;;;;1.70;98432.00;;;;8287027;28;20926;-74
2023/12/17 07:42:43;;;;;;;220.10;19.27;;;;;1.80;98435.00;;;;8288800;28;20230;-72
2023/12/17 07:46:46;;;;;;;127.87;16.07;;;;;1.90;98435.00;;;;8274799;28;20248;-73
2023/12/17 07:50:51;;;;;;;361.97;24.53;;;;;1.80;98428.00;;;;8276591;28;20209;-75
2023/12/17 07:54:54;;;;;;;236.40;18.47;;;;;1.90;98428.00;;;;8271007;28;20205;-77
2023/12/17 07:58:57;;;;;;;192.20;17.10;;;;;1.90;98421.00;;;;8296759;28;20209;-77
2023/12/17 08:03:00;;;;;;;147.33;16.40;;;;;1.90;98420.00;;;;8292168;28;20244;-76
2023/12/17 08:07:05;;;;;;;276.40;21.90;;;;;1.90;98413.00;;;;8292279;28;20199;-78
2023/12/17 08:11:11;;;;;;;203.33;18.90;;;;;1.90;98417.00;;;;8293286;28;20204;-73
2023/12/17 08:15:15;;;;;;;248.07;19.93;;;;;1.90;98415.00;;;;8285091;28;20254;-79
2023/12/17 08:19:19;;;;;;;359.23;19.37;;;;;2.00;98414.00;;;;8282372;28;20197;-78
2023/12/17 08:23:23;;;;;;;465.37;25.83;;;;;2.00;98416.00;;;;8289748;28;20720;-76
2023/12/17 08:27:26;;;;;;;425.40;26.33;;;;;2.00;98414.00;;;;8284467;28;20208;-75
2023/12/17 08:31:30;;;;;;;230.07;16.90;;;;;2.00;98419.00;;;;8271271;28;20203;-78
2023/12/17 08:35:36;;;;;;;192.83;17.40;;;;;2.10;98426.00;;;;8275000;28;20735;-74
2023/12/17 08:39:43;;;;;;;317.77;22.93;;;;;2.20;98432.00;;;;8283721;28;20245;-74
2023/12/17 08:43:46;;;;;;;497.00;27.30;;;;;2.30;98425.00;;;;8283646;28;20219;-73
2023/12/17 08:47:49;;;;;;;261.03;20.90;;;;;2.30;98420.00;;;;8281877;28;20200;-74
2023/12/17 08:51:53;;;;;;;377.23;22.70;;;;;2.30;98420.00;;;;8278203;28;20246;-72
2023/12/17 08:55:57;;;;;;;305.83;21.30;;;;;2.30;98424.00;;;;8284935;28;20207;-72
2023/12/17 09:00:00;;;;;;;434.80;27.03;;;;;2.40;98418.00;;;;8294604;28;20201;-72
2023/12/17 09:04:04;;;;;;;394.70;22.80;;;;;2.50;98429.00;;;;8280075;28;20708;-72
2023/12/17 09:08:07;;;;;;;211.57;16.73;;;;;2.70;98427.00;;;;8285394;28;20207;-74
2023/12/17 09:12:12;;;;;;;261.80;19.57;;;;;2.70;98425.00;;;;8271149;28;20208;-73
2023/12/17 09:16:15;;;;;;;1615.33;388.33;;;;;2.80;98428.00;;;;8286466;28;20989;-80
2023/12/17 09:20:19;;;;;;;830.27;142.27;;;;;2.70;98428.00;;;;8272030;28;20230;-72
2023/12/17 09:24:22;;;;;;;375.30;49.70;;;;;2.80;98430.00;;;;8273182;28;20296;-76
2023/12/17 09:28:27;;;;;;;248.50;26.33;;;;;3.00;98427.00;;;;8261907;28;20207;-73
2023/12/17 09:32:31;;;;;;;351.43;30.17;;;;;3.00;98430.00;;;;8266841;28;20821;-75
2023/12/17 09:36:34;;;;;;;307.87;26.67;;;;;3.10;98428.00;;;;8279140;28;20252;-74
2023/12/17 09:40:37;;;;;;;451.70;27.30;;;;;3.20;98432.00;;;;8277347;28;20233;-73
2023/12/17 09:44:42;;;;;;;269.97;29.97;;;;;3.30;98430.00;;;;8260778;28;20873;-74
2023/12/17 09:48:47;;;;;;;275.70;24.43;;;;;3.30;98430.00;;;;8270504;28;20232;-72
2023/12/17 09:52:51;;;;;;;173.50;19.07;;;;;3.40;98442.00;;;;8259161;28;20224;-74
2023/12/17 09:56:54;;;;;;;327.57;25.27;;;;;3.40;98445.00;;;;8263985;28;20214;-73
2023/12/17 10:00:59;;;;;;;389.03;30.57;;;;;3.50;98445.00;;;;8258787;28;20876;-73
2023/12/17 10:05:02;;;;;;;496.80;29.03;;;;;3.70;98436.00;;;;8262239;28;20854;-74
2023/12/17 10:09:06;;;;;;;266.37;20.67;;;;;3.80;98433.00;;;;8270415;28;20197;-73
2023/12/17 10:13:09;;;;;;;400.37;26.20;;;;;3.80;98421.00;;;;8288213;28;20217;-73
2023/12/17 10:17:18;;;;;;;296.33;24.83;;;;;3.70;98422.00;;;;8277341;28;20276;-75
2023/12/17 10:21:21;;;;;;;121.27;18.27;;;;;3.80;98409.00;;;;8281677;28;20761;-74
2023/12/17 10:25:24;;;;;;;158.00;20.17;;;;;3.90;98412.00;;;;8284413;28;21822;-74
2023/12/17 10:29:32;;;;;;;149.70;20.27;;;;;3.90;98394.00;;;;8279619;28;20313;-75
2023/12/17 10:33:44;;;;;;;231.40;21.40;;;;;3.90;98392.00;;;;8291156;28;20290;-75
2023/12/17 10:37:49;;;;;;;77.67;15.50;;;;;4.00;98390.00;;;;8292428;28;20215;-74
2023/12/17 10:41:57;;;;;;;172.73;21.60;;;;;3.90;98386.00;;;;8269546;28;20232;-75
2023/12/17 10:46:00;;;;;;;68.37;15.57;;;;;3.90;98387.00;;;;8288938;28;20293;-74
2023/12/17 10:50:06;;;;;;;104.50;17.57;;;;;3.80;98371.00;;;;8277317;28;20201;-75
2023/12/17 10:54:11;;;;;;;342.40;26.47;;;;;3.80;98364.00;;;;8270366;28;20240;-75
2023/12/17 10:58:17;;;;;;;208.47;22.30;;;;;3.80;98366.00;;;;8274683;28;20287;-75
2023/12/17 11:02:23;;;;;;;159.30;20.10;;;;;3.90;98372.00;;;;8277285;28;20882;-76
2023/12/17 11:06:28;;;;;;;465.10;154.83;;;;;4.00;98374.00;;;;8266846;28;20345;-76
2023/12/17 11:10:38;;;;;;;1267.03;311.33;;;;;3.90;98366.00;;;;8271598;28;20203;-75
2023/12/17 11:14:42;;;;;;;922.20;170.00;;;;;4.00;98357.00;;;;8271531;28;20195;-76
2023/12/17 11:18:45;;;;;;;1999.90;602.43;;;;;4.00;98353.00;;;;8248641;28;20213;-75
2023/12/17 11:22:51;;;;;;;1740.60;399.00;;;;;4.20;98344.00;;;;8261910;28;20627;-75
2023/12/17 11:26:57;;;;;;;149.63;41.77;;;;;4.30;98341.00;;;;8268324;28;20272;-75
2023/12/17 11:31:00;;;;;;;170.17;25.50;;;;;4.30;98344.00;;;;8273205;28;20263;-75
2023/12/17 11:35:04;;;;;;;143.27;32.60;;;;;4.30;98340.00;;;;8275496;28;20852;-76
2023/12/17 11:39:09;;;;;;;241.27;30.10;;;;;4.40;98353.00;;;;8277886;28;20285;-76
2023/12/17 11:43:12;;;;;;;129.23;21.57;;;;;4.40;98340.00;;;;8269471;28;20235;-76
2023/12/17 11:47:16;;;;;;;118.80;18.57;;;;;4.50;98341.00;;;;8268960;28;20222;-73
2023/12/17 11:51:26;;;;;;;113.53;17.30;;;;;4.50;98340.00;;;;8257996;28;20233;-73
2023/12/17 11:55:40;;;;;;;142.33;28.20;;;;;4.60;98329.00;;;;8269180;28;20398;-73
2023/12/17 11:59:43;;;;;;;95.57;23.53;;;;;4.60;98326.00;;;;8267134;28;20749;-73
2023/12/17 12:03:46;;;;;;;99.13;39.60;;;;;4.70;98316.00;;;;8257966;28;20335;-73
2023/12/17 12:07:53;;;;;;;85.37;18.17;;;;;4.60;98311.00;;;;8280720;28;20233;-73
2023/12/17 12:11:58;;;;;;;70.90;15.40;;;;;4.60;98318.00;;;;8276392;28;20239;-72
2023/12/17 12:16:02;;;;;;;126.00;18.93;;;;;4.50;98312.00;;;;8270532;28;20827;-72
2023/12/17 12:20:09;;;;;;;90.83;18.47;;;;;4.60;98317.00;;;;8270892;28;20252;-72
2023/12/17 12:24:19;;;;;;;199.37;20.00;;;;;4.50;98302.00;;;;8261309;28;20237;-72
2023/12/17 12:28:24;;;;;;;71.57;16.53;;;;;4.50;98302.00;;;;8285195;28;20213;-72
2023/12/17 12:32:28;;;;;;;49.07;14.77;;;;;4.50;98304.00;;;;8273137;28;20638;-74
2023/12/17 12:36:46;;;;;;;70.40;17.27;;;;;4.60;98300.00;;;;8269125;28;20216;-74
2023/12/17 12:40:50;;;;;;;63.00;16.87;;;;;4.60;98301.00;;;;8281311;28;20201;-73
2023/12/17 12:44:54;;;;;;;72.03;16.80;;;;;4.60;98300.00;;;;8294365;28;20807;-74
2023/12/17 12:48:58;;;;;;;88.07;16.97;;;;;4.60;98289.00;;;;8286191;28;20206;-74
2023/12/17 12:53:02;;;;;;;53.03;15.07;;;;;4.60;98282.00;;;;8273211;28;20205;-74
2023/12/17 12:57:18;;;;;;;60.20;15.90;;;;;4.50;98274.00;;;;8275503;28;20722;-74
2023/12/17 13:01:22;;;;;;;59.23;17.33;;;;;4.50;98274.00;;;;8271850;28;20209;-74
2023/12/17 13:05:26;;;;;;;65.50;15.47;;;;;4.60;98281.00;;;;8263845;28;20216;-74
2023/12/17 13:09:29;;;;;;;60.83;15.97;;;;;4.50;98272.00;;;;8269964;28;20288;-74
2023/12/17 13:13:32;;;;;;;63.03;16.43;;;;;4.60;98267.00;;;;8274292;28;20715;-75
2023/12/17 13:17:37;;;;;;;124.97;23.60;;;;;4.60;98262.00;;;;8267103;28;20251;-75
2023/12/17 13:21:40;;;;;;;155.20;25.73;;;;;4.40;98266.00;;;;8265853;28;20786;-75
2023/12/17 13:25:43;;;;;;;137.27;24.90;;;;;4.20;98253.00;;;;8277656;28;20280;-75
2023/12/17 13:29:46;;;;;;;206.87;21.07;;;;;4.00;98264.00;;;;8258623;28;20650;-75
2023/12/17 13:33:51;;;;;;;93.77;19.70;;;;;3.90;98267.00;;;;8264971;28;20813;-75
2023/12/17 13:37:55;;;;;;;96.77;20.07;;;;;4.00;98264.00;;;;8268740;28;20205;-77
2023/12/17 13:41:58;;;;;;;96.23;18.33;;;;;3.90;98254.00;;;;8281264;28;20229;-77
2023/12/17 13:46:05;;;;;;;99.30;17.67;;;;;4.00;98253.00;;;;8282631;28;20271;-77
2023/12/17 13:50:12;;;;;;;186.67;21.73;;;;;4.00;98248.00;;;;8281451;28;20293;-77
2023/12/17 13:54:15;;;;;;;238.57;24.63;;;;;4.00;98258.00;;;;8275427;28;20195;-77
2023/12/17 13:58:19;;;;;;;91.47;19.60;;;;;4.00;98249.00;;;;8258021;28;20238;-77
2023/12/17 14:02:25;;;;;;;184.50;25.83;;;;;3.90;98251.00;;;;8259271;28;20256;-78
2023/12/17 14:06:29;;;;;;;120.03;20.83;;;;;3.90;98249.00;;;;8289952;28;20255;-78
2023/12/17 14:10:32;;;;;;;116.63;20.33;;;;;3.80;98258.00;;;;8286900;28;20200;-77
2023/12/17 14:14:36;;;;;;;88.00;19.53;;;;;3.80;98245.00;;;;8287808;28;20194;-78
2023/12/17 14:18:40;;;;;;;107.93;20.80;;;;;3.80;98241.00;;;;8271373;28;20735;-78
2023/12/17 14:22:45;;;;;;;106.03;21.47;;;;;3.70;98237.00;;;;8257833;28;20233;-78
2023/12/17 14:26:48;;;;;;;63.87;19.10;;;;;3.70;98248.00;;;;8283519;28;20204;-78
2023/12/17 14:30:51;;;;;;;127.07;21.00;;;;;3.60;98250.00;;;;8282676;28;20203;-78
2023/12/17 14:34:56;;;;;;;93.83;21.40;;;;;3.60;98252.00;;;;8258465;28;20997;-78
2023/12/17 14:39:01;;;;;;;111.87;22.70;;;;;3.60;98250.00;;;;8284579;28;20282;-78
2023/12/17 14:43:04;;;;;;;386.97;28.70;;;;;3.60;98250.00;;;;8269993;28;20269;-78
2023/12/17 14:47:08;;;;;;;180.13;24.50;;;;;3.60;98242.00;;;;8259587;28;20202;-78
2023/12/17 14:51:12;;;;;;;280.73;29.03;;;;;3.50;98243.00;;;;8263703;28;20206;-75
2023/12/17 14:55:16;;;;;;;164.73;24.87;;;;;3.40;98238.00;;;;8268154;28;20203;-77
2023/12/17 14:59:19;;;;;;;113.90;22.50;;;;;3.40;98232.00;;;;8290629;28;20197;-77
2023/12/17 15:03:23;;;;;;;109.20;22.40;;;;;3.30;98230.00;;;;8268665;28;20338;-77
2023/12/17 15:07:27;;;;;;;106.90;18.27;;;;;3.20;98223.00;;;;8258688;28;20963;-78
2023/12/17 15:11:31;;;;;;;164.43;20.47;;;;;3.10;98229.00;;;;8262990;28;20234;-77
2023/12/17 15:15:34;;;;;;;152.20;21.93;;;;;3.10;98232.00;;;;8269840;28;20244;-77
2023/12/17 15:19:38;;;;;;;212.37;22.60;;;;;3.00;98220.00;;;;8267178;28;20245;-78
2023/12/17 15:23:41;;;;;;;372.20;32.70;;;;;3.00;98230.00;;;;8262296;28;20327;-78
2023/12/17 15:27:45;;;;;;;296.90;32.47;;;;;3.00;98219.00;;;;8268948;28;20203;-78
2023/12/17 15:31:49;;;;;;;157.37;24.80;;;;;3.00;98219.00;;;;8272213;28;20216;-78
2023/12/17 15:35:52;;;;;;;217.53;28.43;;;;;3.00;98229.00;;;;8276934;28;20215;-77
2023/12/17 15:39:55;;;;;;;255.73;26.23;;;;;3.00;98235.00;;;;8256325;28;20232;-76
2023/12/17 15:44:00;;;;;;;514.23;39.87;;;;;2.90;98234.00;;;;8284006;28;20316;-75
2023/12/17 15:48:03;;;;;;;176.13;24.73;;;;;2.90;98229.00;;;;8268753;28;20244;-75
2023/12/17 15:52:06;;;;;;;323.33;23.67;;;;;2.80;98235.00;;;;8270341;28;20204;-75
2023/12/17 15:56:09;;;;;;;214.10;23.90;;;;;2.80;98234.00;;;;8285076;28;20316;-75
2023/12/17 16:00:15;;;;;;;357.57;26.33;;;;;2.90;98233.00;;;;8280866;28;20195;-75
2023/12/17 16:04:19;;;;;;;231.40;20.53;;;;;2.90;98233.00;;;;8260680;28;20244;-75
2023/12/17 16:08:22;;;;;;;330.67;25.87;;;;;2.90;98234.00;;;;8279930;28;20198;-75
2023/12/17 16:12:25;;;;;;;228.27;22.37;;;;;2.80;98228.00;;;;8258818;28;20212;-76
2023/12/17 16:16:30;;;;;;;231.73;25.83;;;;;2.70;98222.00;;;;8286654;28;20200;-76
2023/12/17 16:20:34;;;;;;;144.53;24.50;;;;;2.70;98230.00;;;;8270213;28;20214;-77
2023/12/17 16:24:37;;;;;;;263.93;33.13;;;;;2.60;98228.00;;;;8275256;28;20227;-76
2023/12/17 16:28:40;;;;;;;149.97;24.17;;;;;2.60;98217.00;;;;8271593;28;20198;-75
2023/12/17 16:32:45;;;;;;;472.00;45.47;;;;;2.60;98217.00;;;;8283434;28;20641;-76
2023/12/17 16:36:48;;;;;;;356.20;36.27;;;;;2.70;98217.00;;;;8281767;28;20693;-75
2023/12/17 16:40:52;;;;;;;425.90;43.27;;;;;2.70;98213.00;;;;8271607;28;20289;-76
2023/12/17 16:44:55;;;;;;;447.30;39.13;;;;;2.60;98225.00;;;;8257053;28;20229;-76
2023/12/17 16:48:59;;;;;;;160.57;25.53;;;;;2.60;98222.00;;;;8263567;28;20972;-76
2023/12/17 16:53:03;;;;;;;165.70;22.47;;;;;2.60;98214.00;;;;8266092;28;20202;-76
2023/12/17 16:57:06;;;;;;;165.27;23.43;;;;;2.60;98212.00;;;;8275975;28;20208;-76
2023/12/17 17:01:09;;;;;;;176.50;28.20;;;;;2.60;98206.00;;;;8266113;28;20204;-77
2023/12/17 17:05:14;;;;;;;201.83;20.93;;;;;2.60;98212.00;;;;8263043;28;20324;-77
2023/12/17 17:09:18;;;;;;;285.93;26.23;;;;;2.60;98205.00;;;;8277098;28;20204;-77
2023/12/17 17:13:24;;;;;;;406.40;33.20;;;;;2.60;98208.00;;;;8259396;28;20297;-76
2023/12/17 17:17:27;;;;;;;371.87;30.77;;;;;2.70;98204.00;;;;8270230;28;20303;-75
2023/12/17 17:21:32;;;;;;;252.37;23.73;;;;;2.70;98207.00;;;;8272299;28;20230;-75
2023/12/17 17:25:37;;;;;;;343.67;29.37;;;;;2.70;98208.00;;;;8266101;28;20718;-76
2023/12/17 17:29:40;;;;;;;257.13;26.80;;;;;2.70;98195.00;;;;8272887;28;20215;-76
2023/12/17 17:33:43;;;;;;;218.40;22.57;;;;;2.70;98197.00;;;;8265444;28;20194;-76
2023/12/17 17:37:48;;;;;;;307.67;27.20;;;;;2.60;98201.00;;;;8261304;28;21012;-76
2023/12/17 17:41:52;;;;;;;433.67;31.20;;;;;2.60;98209.00;;;;8259754;28;20550;-76
2023/12/17 17:45:55;;;;;;;342.40;27.93;;;;;2.60;98205.00;;;;8328834;28;20697;-76
2023/12/17 17:49:59;;;;;;;199.60;19.90;;;;;2.60;98205.00;;;;8330964;28;20642;-76
2023/12/17 17:54:04;;;;;;;306.90;27.73;;;;;2.60;98211.00;;;;8332199;28;20207;-75
2023/12/17 17:58:07;;;;;;;303.20;27.07;;;;;2.50;98210.00;;;;8332681;28;20204;-76
2023/12/17 18:02:10;;;;;;;567.03;42.03;;;;;2.50;98215.00;;;;8332991;28;20260;-76
2023/12/17 18:06:13;;;;;;;592.70;43.20;;;;;2.50;98208.00;;;;8332788;28;20231;-75
2023/12/17 18:10:18;;;;;;;474.20;50.83;;;;;2.50;98218.00;;;;8332688;28;20199;-75
2023/12/17 18:14:21;;;;;;;440.67;41.87;;;;;2.60;98217.00;;;;8332948;28;20207;-76
2023/12/17 18:18:25;;;;;;;452.87;38.23;;;;;2.50;98222.00;;;;8331282;28;20656;-75
2023/12/17 18:22:29;;;;;;;351.83;31.50;;;;;2.60;98221.00;;;;8332943;28;20263;-76
2023/12/17 18:26:34;;;;;;;439.37;35.13;;;;;2.50;98218.00;;;;8332091;28;20224;-75
2023/12/17 18:30:38;;;;;;;410.63;31.30;;;;;2.50;98223.00;;;;8333225;28;20201;-76
2023/12/17 18:34:41;;;;;;;435.10;36.83;;;;;2.50;98209.00;;;;8330952;28;20199;-75
2023/12/17 18:38:45;;;;;;;449.03;40.13;;;;;2.50;98214.00;;;;8331909;28;20539;-77
2023/12/17 18:42:50;;;;;;;318.23;30.73;;;;;2.50;98214.00;;;;8333096;28;20614;-76
2023/12/17 18:46:53;;;;;;;230.53;23.57;;;;;2.50;98213.00;;;;8330821;28;20222;-76
2023/12/17 18:50:56;;;;;;;219.30;29.27;;;;;2.40;98209.00;;;;8332495;28;20200;-75
2023/12/17 18:55:02;;;;;;;304.13;29.00;;;;;2.40;98205.00;;;;8331147;28;20284;-75
2023/12/17 18:59:07;;;;;;;119.53;18.77;;;;;2.40;98204.00;;;;8331470;28;20198;-76
2023/12/17 19:03:11;;;;;;;350.80;31.37;;;;;2.30;98203.00;;;;8333282;28;20228;-78
2023/12/17 19:07:14;;;;;;;338.00;27.73;;;;;2.30;98201.00;;;;8330895;28;20229;-78
2023/12/17 19:11:19;;;;;;;400.60;31.47;;;;;2.30;98210.00;;;;8330698;28;20203;-79
2023/12/17 19:15:24;;;;;;;391.40;30.83;;;;;2.30;98207.00;;;;8336343;28;20230;-79
2023/12/17 19:19:27;;;;;;;300.00;26.53;;;;;2.30;98199.00;;;;8338151;28;20290;-80
2023/12/17 19:23:30;;;;;;;428.07;30.93;;;;;2.30;98194.00;;;;8338964;28;20197;-78
2023/12/17 19:27:33;;;;;;;278.10;22.20;;;;;2.30;98197.00;;;;8337881;28;20607;-79
2023/12/17 19:31:38;;;;;;;496.20;32.77;;;;;2.30;98194.00;;;;8337855;28;20646;-79
2023/12/17 19:35:41;;;;;;;421.07;32.17;;;;;2.30;98190.00;;;;8337849;28;20235;-78
2023/12/17 19:39:46;;;;;;;533.60;34.63;;;;;2.30;98189.00;;;;8337770;28;20281;-79
2023/12/17 19:43:49;;;;;;;484.50;32.87;;;;;2.30;98182.00;;;;8336639;28;20208;-79
2023/12/17 19:47:53;;;;;;;526.77;35.20;;;;;2.30;98182.00;;;;8337821;28;20200;-79
2023/12/17 19:51:57;;;;;;;536.90;35.90;;;;;2.20;98175.00;;;;8337641;28;20253;-79
2023/12/17 19:56:00;;;;;;;381.67;25.80;;;;;2.20;98173.00;;;;8337895;28;20192;-79
2023/12/17 20:00:05;;;;;;;371.97;26.67;;;;;2.20;98178.00;;;;8337310;28;20276;-79